createdAt,value
2023-01-28T00:01:34.621Z,4.23
2023-01-28T00:04:02.488Z,4.26
2023-01-28T00:06:30.192Z,4.26
2023-01-28T00:08:58.006Z,4.28
2023-01-28T00:11:25.793Z,4.27
2023-01-28T00:13:55.694Z,4.22
2023-01-28T00:16:23.615Z,4.21
2023-01-28T00:18:51.816Z,4.13
2023-01-28T00:21:19.901Z,4.07
2023-01-28T00:23:52.843Z,4.11
2023-01-28T00:26:20.668Z,4.09
2023-01-28T00:28:48.993Z,4.02
2023-01-28T00:31:20.559Z,4.06
2023-01-28T00:33:50.782Z,4.08
2023-01-28T00:36:20.811Z,4.04
2023-01-28T00:38:51.626Z,4.05
2023-01-28T00:41:22.402Z,4.02
2023-01-28T00:43:50.859Z,4.02
2023-01-28T00:46:21.544Z,4.06
2023-01-28T00:48:50.008Z,4.09
2023-01-28T00:51:20.052Z,4.01
2023-01-28T00:53:48.399Z,4.05
2023-01-28T00:56:17.902Z,4.02
2023-01-28T00:58:46.066Z,3.96
2023-01-28T01:01:16.741Z,3.99
2023-01-28T01:03:45.995Z,3.95
2023-01-28T01:06:17.392Z,3.89
2023-01-28T01:08:50.088Z,3.84
2023-01-28T01:11:18.849Z,3.76
2023-01-28T01:13:50.678Z,3.71
2023-01-28T01:16:18.391Z,3.66
2023-01-28T01:18:47.549Z,3.66
2023-01-28T01:21:17.647Z,3.72
2023-01-28T01:23:45.772Z,3.71
2023-01-28T01:26:14.622Z,3.73
2023-01-28T01:28:42.710Z,3.78
2023-01-28T01:31:14.755Z,3.79
2023-01-28T01:33:43.090Z,3.69
2023-01-28T01:36:13.766Z,3.69
2023-01-28T01:38:42.505Z,3.66
2023-01-28T01:41:24.690Z,3.61
2023-01-28T01:43:54.865Z,3.61
2023-01-28T01:46:27.274Z,3.59
2023-01-28T01:48:58.448Z,3.65
2023-01-28T01:51:32.446Z,3.65
2023-01-28T01:54:01.302Z,3.69
2023-01-28T01:56:34.362Z,3.72
2023-01-28T01:59:03.399Z,3.75
2023-01-28T02:01:32.603Z,3.78
2023-01-28T02:04:07.148Z,3.77
2023-01-28T02:06:37.831Z,3.80
2023-01-28T02:09:09.113Z,3.75
2023-01-28T02:11:37.814Z,3.73
2023-01-28T02:14:07.823Z,3.71
2023-01-28T02:16:35.780Z,3.72
2023-01-28T02:19:03.623Z,3.75
2023-01-28T02:22:02.510Z,3.77
2023-01-28T02:24:56.735Z,3.82
2023-01-28T02:27:32.451Z,3.83
2023-01-28T02:30:08.795Z,3.81
2023-01-28T02:32:44.784Z,3.85
2023-01-28T02:35:17.725Z,3.91
2023-01-28T02:37:48.839Z,3.94
2023-01-28T02:40:23.669Z,3.96
2023-01-28T02:42:51.502Z,3.87
2023-01-28T02:45:23.925Z,3.90
2023-01-28T02:47:57.665Z,3.93
2023-01-28T02:50:32.613Z,3.95
2023-01-28T02:53:35.973Z,3.93
2023-01-28T02:56:10.025Z,3.92
2023-01-28T02:58:43.796Z,3.89
2023-01-28T03:01:20.312Z,3.88
2023-01-28T03:04:00.492Z,3.87
2023-01-28T03:06:34.472Z,3.86
2023-01-28T03:09:24.541Z,3.87
2023-01-28T03:12:13.754Z,3.93
2023-01-28T03:15:00.456Z,4.01
2023-01-28T03:17:52.677Z,3.98
2023-01-28T03:20:40.307Z,3.95
2023-01-28T03:23:30.360Z,3.85
2023-01-28T03:26:20.145Z,3.86
2023-01-28T03:29:08.013Z,3.91
2023-01-28T03:31:55.052Z,3.88
2023-01-28T03:34:41.654Z,3.83
2023-01-28T03:37:10.163Z,3.87
2023-01-28T03:39:38.959Z,3.89
2023-01-28T03:42:09.484Z,3.85
2023-01-28T03:44:52.135Z,3.84
2023-01-28T03:47:20.115Z,3.83
2023-01-28T03:49:51.222Z,3.87
2023-01-28T03:52:21.004Z,3.93
2023-01-28T03:54:49.479Z,3.94
2023-01-28T03:57:18.169Z,3.88
2023-01-28T03:59:45.912Z,3.76
2023-01-28T04:02:13.840Z,3.75
2023-01-28T04:04:42.337Z,3.67
2023-01-28T04:07:15.434Z,3.66
2023-01-28T04:09:44.106Z,3.71
2023-01-28T04:12:11.970Z,3.76
2023-01-28T04:14:40.656Z,3.74
2023-01-28T04:17:10.592Z,3.77
2023-01-28T04:19:38.582Z,3.83
2023-01-28T04:22:08.404Z,3.81
2023-01-28T04:24:37.500Z,3.74
2023-01-28T04:27:05.337Z,3.76
2023-01-28T04:29:33.037Z,3.76
2023-01-28T04:32:00.690Z,3.73
2023-01-28T04:34:28.361Z,3.73
2023-01-28T04:36:56.089Z,3.67
2023-01-28T04:39:23.854Z,3.71
2023-01-28T04:41:52.962Z,3.72
2023-01-28T04:44:20.686Z,3.68
2023-01-28T04:46:48.426Z,3.61
2023-01-28T04:49:16.096Z,3.60
2023-01-28T04:51:43.776Z,3.58
2023-01-28T04:54:11.483Z,3.55
2023-01-28T04:56:39.231Z,3.55
2023-01-28T04:59:08.379Z,3.44
2023-01-28T05:01:36.100Z,3.45
2023-01-28T05:04:05.706Z,3.45
2023-01-28T05:06:33.524Z,3.50
2023-01-28T05:09:01.697Z,3.45
2023-01-28T05:11:29.435Z,3.43
2023-01-28T05:13:57.135Z,3.38
2023-01-28T05:16:26.398Z,3.31
2023-01-28T05:18:54.106Z,3.35
2023-01-28T05:21:21.860Z,3.44
2023-01-28T05:23:49.559Z,3.47
2023-01-28T05:26:17.192Z,3.51
2023-01-28T05:28:44.875Z,3.50
2023-01-28T05:31:12.883Z,3.54
2023-01-28T05:33:41.972Z,3.56
2023-01-28T05:36:09.755Z,3.47
2023-01-28T05:38:37.458Z,3.47
2023-01-28T05:41:05.384Z,3.40
2023-01-28T05:43:33.067Z,3.35
2023-01-28T05:46:00.807Z,3.36
2023-01-28T05:48:28.611Z,3.31
2023-01-28T05:50:58.043Z,3.32
2023-01-28T05:53:25.765Z,3.34
2023-01-28T05:55:54.535Z,3.27
2023-01-28T05:58:22.668Z,3.30
2023-01-28T06:00:50.443Z,3.32
2023-01-28T06:03:18.198Z,3.34
2023-01-28T06:05:45.920Z,3.39
2023-01-28T06:08:15.074Z,3.34
2023-01-28T06:10:42.802Z,3.27
2023-01-28T06:13:10.452Z,3.33
2023-01-28T06:15:38.309Z,3.30
2023-01-28T06:18:06.081Z,3.31
2023-01-28T06:20:33.794Z,3.34
2023-01-28T06:23:01.483Z,3.32
2023-01-28T06:25:30.728Z,3.35
2023-01-28T06:27:58.495Z,3.36
2023-01-28T06:30:26.209Z,3.34
2023-01-28T06:32:57.443Z,3.24
2023-01-28T06:35:25.792Z,3.26
2023-01-28T06:37:53.952Z,3.23
2023-01-28T06:40:22.906Z,3.18
2023-01-28T06:42:52.023Z,3.14
2023-01-28T06:45:19.724Z,3.10
2023-01-28T06:47:47.452Z,3.20
2023-01-28T06:50:15.410Z,3.23
2023-01-28T06:52:43.276Z,3.25
2023-01-28T06:55:11.118Z,3.26
2023-01-28T06:57:39.601Z,3.21
2023-01-28T07:00:11.308Z,3.09
2023-01-28T07:02:39.115Z,3.06
2023-01-28T07:05:07.765Z,3.11
2023-01-28T07:07:35.444Z,3.12
2023-01-28T07:10:03.164Z,3.08
2023-01-28T07:12:30.909Z,3.10
2023-01-28T07:14:58.581Z,3.13
2023-01-28T07:17:27.711Z,3.11
2023-01-28T07:19:55.441Z,3.11
2023-01-28T07:22:23.153Z,3.11
2023-01-28T07:24:50.833Z,3.14
2023-01-28T07:27:18.541Z,3.10
2023-01-28T07:29:46.352Z,3.10
2023-01-28T07:32:14.073Z,3.02
2023-01-28T07:34:43.157Z,2.99
2023-01-28T07:37:11.112Z,3.02
2023-01-28T07:39:38.840Z,2.92
2023-01-28T07:42:06.822Z,2.98
2023-01-28T07:44:35.795Z,3.01
2023-01-28T07:47:04.019Z,3.04
2023-01-28T07:49:32.455Z,3.03
2023-01-28T07:52:01.631Z,3.03
2023-01-28T07:54:29.369Z,3.09
2023-01-28T07:56:57.041Z,3.14
2023-01-28T07:59:24.714Z,3.09
2023-01-28T08:01:54.942Z,2.93
2023-01-28T08:04:23.055Z,2.93
2023-01-28T08:06:52.293Z,2.96
2023-01-28T08:09:21.476Z,3.01
2023-01-28T08:11:49.199Z,3.01
2023-01-28T08:14:16.926Z,2.93
2023-01-28T08:16:44.638Z,2.98
2023-01-28T08:19:12.628Z,3.04
2023-01-28T08:21:40.391Z,3.09
2023-01-28T08:24:08.669Z,3.12
2023-01-28T08:26:37.969Z,3.16
2023-01-28T08:29:07.846Z,3.16
2023-01-28T08:31:35.758Z,3.17
2023-01-28T08:34:03.523Z,3.05
2023-01-28T08:36:31.214Z,3.05
2023-01-28T08:38:59.100Z,3.08
2023-01-28T08:41:26.896Z,3.06
2023-01-28T08:43:56.070Z,3.09
2023-01-28T08:46:23.853Z,3.13
2023-01-28T08:48:51.793Z,3.16
2023-01-28T08:51:19.512Z,3.07
2023-01-28T08:53:50.000Z,2.94
2023-01-28T08:56:17.696Z,2.92
2023-01-28T08:58:45.630Z,2.93
2023-01-28T09:01:14.747Z,3.05
2023-01-28T09:03:42.516Z,3.17
2023-01-28T09:06:10.315Z,3.24
2023-01-28T09:08:38.063Z,3.24
2023-01-28T09:11:06.037Z,3.29
2023-01-28T09:13:33.793Z,3.31
2023-01-28T09:16:01.684Z,3.43
2023-01-28T09:18:30.902Z,3.48
2023-01-28T09:20:58.628Z,3.42
2023-01-28T09:23:26.448Z,3.46
2023-01-28T09:26:01.427Z,3.48
2023-01-28T09:28:29.929Z,3.47
2023-01-28T09:31:03.072Z,3.45
2023-01-28T09:33:32.769Z,3.44
2023-01-28T09:36:01.735Z,3.46
2023-01-28T09:38:30.701Z,3.39
2023-01-28T09:41:02.316Z,3.38
2023-01-28T09:43:45.883Z,3.44
2023-01-28T09:46:15.676Z,3.46
2023-01-28T09:48:48.252Z,3.49
2023-01-28T09:51:28.258Z,3.44
2023-01-28T09:53:58.451Z,3.48
2023-01-28T09:56:30.116Z,3.46
2023-01-28T09:58:59.156Z,3.28
2023-01-28T10:01:40.097Z,3.22
2023-01-28T10:04:23.207Z,3.38
2023-01-28T10:07:02.136Z,3.54
2023-01-28T10:09:38.311Z,3.62
2023-01-28T10:12:17.285Z,3.64
2023-01-28T10:14:57.874Z,3.72
2023-01-28T10:17:30.019Z,3.68
2023-01-28T10:20:04.419Z,3.72
2023-01-28T10:22:36.611Z,3.87
2023-01-28T10:25:09.140Z,3.70
2023-01-28T10:27:38.334Z,3.76
2023-01-28T10:30:19.413Z,3.78
2023-01-28T10:32:52.712Z,3.84
2023-01-28T10:35:22.705Z,3.78
2023-01-28T10:37:51.232Z,3.72
2023-01-28T10:40:19.804Z,3.61
2023-01-28T10:42:47.532Z,3.67
2023-01-28T10:45:21.526Z,3.60
2023-01-28T10:47:54.584Z,3.46
2023-01-28T10:50:26.512Z,3.43
2023-01-28T10:52:55.939Z,3.38
2023-01-28T10:55:25.490Z,3.36
2023-01-28T10:57:54.638Z,3.46
2023-01-28T11:00:28.057Z,3.57
2023-01-28T11:02:58.873Z,3.60
2023-01-28T11:05:30.494Z,3.35
2023-01-28T11:08:06.252Z,3.20
2023-01-28T11:10:35.844Z,2.92
2023-01-28T11:13:05.822Z,2.97
2023-01-28T11:15:34.487Z,2.99
2023-01-28T11:18:06.132Z,3.05
2023-01-28T11:20:42.225Z,3.18
2023-01-28T11:23:20.640Z,3.08
2023-01-28T11:25:48.504Z,3.01
2023-01-28T11:28:21.797Z,3.21
2023-01-28T11:30:53.731Z,3.37
2023-01-28T11:33:24.614Z,3.40
2023-01-28T11:35:58.325Z,3.43
2023-01-28T11:38:27.303Z,3.41
2023-01-28T11:40:56.703Z,3.41
2023-01-28T11:43:26.881Z,3.39
2023-01-28T11:46:05.210Z,3.27
2023-01-28T11:48:42.951Z,3.19
2023-01-28T11:51:24.780Z,3.12
2023-01-28T11:54:18.728Z,3.19
2023-01-28T11:57:03.559Z,3.32
2023-01-28T11:59:43.833Z,3.50
2023-01-28T12:02:29.703Z,3.58
2023-01-28T12:05:15.913Z,3.51
2023-01-28T12:07:54.221Z,3.49
2023-01-28T12:10:30.281Z,3.49
2023-01-28T12:13:22.569Z,3.36
2023-01-28T12:16:15.341Z,3.31
2023-01-28T12:19:10.455Z,3.39
2023-01-28T12:21:49.403Z,3.49
2023-01-28T12:24:36.574Z,3.53
2023-01-28T12:27:11.764Z,3.46
2023-01-28T12:29:47.705Z,3.47
2023-01-28T12:32:39.194Z,3.45
2023-01-28T12:35:23.379Z,3.38
2023-01-28T12:38:03.068Z,3.25
2023-01-28T12:40:56.855Z,3.29
2023-01-28T12:43:39.738Z,3.41
2023-01-28T12:46:14.119Z,3.55
2023-01-28T12:48:47.251Z,3.59
2023-01-28T12:51:18.145Z,3.66
2023-01-28T12:53:53.648Z,3.74
2023-01-28T12:56:28.911Z,3.84
2023-01-28T12:58:59.901Z,3.89
2023-01-28T13:01:36.259Z,3.89
2023-01-28T13:04:10.395Z,3.99
2023-01-28T13:06:45.727Z,4.07
2023-01-28T13:09:18.703Z,4.11
2023-01-28T13:11:49.413Z,4.04
2023-01-28T13:14:17.985Z,4.01
2023-01-28T13:16:45.787Z,3.88
2023-01-28T13:19:24.750Z,3.78
2023-01-28T13:21:52.623Z,3.79
2023-01-28T13:24:24.175Z,3.83
2023-01-28T13:26:55.863Z,3.72
2023-01-28T13:29:31.275Z,3.66
2023-01-28T13:32:01.312Z,3.66
2023-01-28T13:34:37.796Z,3.72
2023-01-28T13:37:17.651Z,3.78
2023-01-28T13:39:50.814Z,3.77
2023-01-28T13:42:28.805Z,3.78
2023-01-28T13:44:57.239Z,3.69
2023-01-28T13:47:30.901Z,3.70
2023-01-28T13:50:04.527Z,3.70
2023-01-28T13:52:35.248Z,3.66
2023-01-28T13:55:07.478Z,3.64
2023-01-28T13:58:16.841Z,3.65
2023-01-28T14:01:09.357Z,3.62
2023-01-28T14:04:09.323Z,3.71
2023-01-28T14:06:54.952Z,3.74
2023-01-28T14:09:49.426Z,3.76
2023-01-28T14:12:39.116Z,3.72
2023-01-28T14:15:52.312Z,3.74
2023-01-28T14:18:27.795Z,3.75
2023-01-28T14:20:58.288Z,3.75
2023-01-28T14:23:26.824Z,3.75
2023-01-28T14:26:08.488Z,3.74
2023-01-28T14:28:45.342Z,3.70
2023-01-28T14:31:19.420Z,3.68
2023-01-28T14:33:48.785Z,3.68
2023-01-28T14:36:16.702Z,3.71
2023-01-28T14:38:46.055Z,3.73
2023-01-28T14:41:24.570Z,3.76
2023-01-28T14:43:54.095Z,3.74
2023-01-28T14:46:32.139Z,3.75
2023-01-28T14:49:17.267Z,3.73
2023-01-28T14:52:17.266Z,3.72
2023-01-28T14:55:01.455Z,3.76
2023-01-28T14:57:41.512Z,3.79
2023-01-28T15:00:22.415Z,3.76
2023-01-28T15:02:50.435Z,3.73
2023-01-28T15:05:22.073Z,3.70
2023-01-28T15:07:50.800Z,3.62
2023-01-28T15:10:22.199Z,3.61
2023-01-28T15:12:54.376Z,3.63
2023-01-28T15:15:30.454Z,3.61
2023-01-28T15:18:03.385Z,3.57
2023-01-28T15:20:33.320Z,3.46
2023-01-28T15:23:02.596Z,3.36
2023-01-28T15:25:31.234Z,3.29
2023-01-28T15:28:01.723Z,3.18
2023-01-28T15:30:31.517Z,3.20
2023-01-28T15:33:05.433Z,3.16
2023-01-28T15:35:36.802Z,3.15
2023-01-28T15:38:05.575Z,3.05
2023-01-28T15:40:43.330Z,2.90
2023-01-28T15:43:19.620Z,2.89
2023-01-28T15:45:49.081Z,2.91
2023-01-28T15:48:17.492Z,2.91
2023-01-28T15:50:46.976Z,2.96
2023-01-28T15:53:15.810Z,2.97
2023-01-28T15:55:45.359Z,3.01
2023-01-28T15:58:29.507Z,3.02
2023-01-28T16:01:05.600Z,2.96
2023-01-28T16:03:34.273Z,2.94
2023-01-28T16:06:08.545Z,2.91
2023-01-28T16:08:41.858Z,2.78
2023-01-28T16:11:10.658Z,2.74
2023-01-28T16:13:44.050Z,2.75
2023-01-28T16:16:12.714Z,2.72
2023-01-28T16:18:43.371Z,2.67
2023-01-28T16:21:13.679Z,2.67
2023-01-28T16:23:41.535Z,2.67
2023-01-28T16:26:23.024Z,2.64
2023-01-28T16:28:50.727Z,2.62
2023-01-28T16:31:19.015Z,2.62
2023-01-28T16:33:47.053Z,2.63
2023-01-28T16:36:19.195Z,2.59
2023-01-28T16:38:47.289Z,2.57
2023-01-28T16:41:20.982Z,2.55
2023-01-28T16:43:48.677Z,2.52
2023-01-28T16:46:16.428Z,2.49
2023-01-28T16:48:44.147Z,2.47
2023-01-28T16:51:18.548Z,2.42
2023-01-28T16:53:47.826Z,2.44
2023-01-28T16:56:30.689Z,2.42
2023-01-28T16:59:04.876Z,2.41
2023-01-28T17:01:32.549Z,2.39
2023-01-28T17:04:00.265Z,2.30
2023-01-28T17:06:29.500Z,2.23
2023-01-28T17:08:57.185Z,2.24
2023-01-28T17:11:27.915Z,2.23
2023-01-28T17:13:55.616Z,2.23
2023-01-28T17:16:23.326Z,2.22
2023-01-28T17:18:56.055Z,2.23
2023-01-28T17:21:23.958Z,2.22
2023-01-28T17:23:53.189Z,2.14
2023-01-28T17:26:20.953Z,2.11
2023-01-28T17:28:53.475Z,2.05
2023-01-28T17:31:21.509Z,2.04
2023-01-28T17:33:53.809Z,2.02
2023-01-28T17:36:21.527Z,2.00
2023-01-28T17:38:49.504Z,1.99
2023-01-28T17:41:18.989Z,1.96
2023-01-28T17:43:51.959Z,1.90
2023-01-28T17:46:20.491Z,1.87
2023-01-28T17:48:48.362Z,1.85
2023-01-28T17:51:17.176Z,1.84
2023-01-28T17:53:46.818Z,1.81
2023-01-28T17:56:20.534Z,1.80
2023-01-28T17:58:52.631Z,1.80
2023-01-28T18:01:20.869Z,1.78
2023-01-28T18:03:49.159Z,1.76
2023-01-28T18:06:17.724Z,1.77
2023-01-28T18:08:46.212Z,1.73
2023-01-28T18:11:15.981Z,1.72
2023-01-28T18:13:46.086Z,1.70
2023-01-28T18:16:16.268Z,1.67
2023-01-28T18:18:44.326Z,1.62
2023-01-28T18:21:42.984Z,1.61
2023-01-28T18:24:18.845Z,1.58
2023-01-28T18:26:46.654Z,1.55
2023-01-28T18:29:20.274Z,1.57
2023-01-28T18:31:48.897Z,1.54
2023-01-28T18:34:18.562Z,1.51
2023-01-28T18:36:46.315Z,1.51
2023-01-28T18:39:14.676Z,1.50
2023-01-28T18:41:42.424Z,1.49
2023-01-28T18:44:11.202Z,1.48
2023-01-28T18:46:40.550Z,1.44
2023-01-28T18:49:08.302Z,1.42
2023-01-28T18:51:36.041Z,1.40
2023-01-28T18:54:06.172Z,1.39
2023-01-28T18:56:35.054Z,1.35
2023-01-28T18:59:04.807Z,1.36
2023-01-28T19:01:35.419Z,1.34
2023-01-28T19:04:04.688Z,1.33
2023-01-28T19:06:33.362Z,1.29
2023-01-28T19:09:04.756Z,1.25
2023-01-28T19:11:32.773Z,1.23
2023-01-28T19:14:00.659Z,1.20
2023-01-28T19:16:28.806Z,1.18
2023-01-28T19:18:58.970Z,1.16
2023-01-28T19:21:28.910Z,1.15
2023-01-28T19:23:58.463Z,1.09
2023-01-28T19:26:27.883Z,1.02
2023-01-28T19:28:56.231Z,0.98
2023-01-28T19:31:25.495Z,0.98
2023-01-28T19:33:55.737Z,1.02
2023-01-28T19:36:23.765Z,1.03
2023-01-28T19:38:53.100Z,1.03
2023-01-28T19:41:20.812Z,1.04
2023-01-28T19:43:49.349Z,1.06
2023-01-28T19:46:18.186Z,1.03
2023-01-28T19:48:46.302Z,1.01
2023-01-28T19:51:15.840Z,0.99
2023-01-28T19:53:44.470Z,0.97
2023-01-28T19:56:14.846Z,0.97
2023-01-28T19:58:44.493Z,0.97
2023-01-28T20:01:14.098Z,0.97
2023-01-28T20:03:41.904Z,0.97
2023-01-28T20:06:12.513Z,0.97
2023-01-28T20:08:40.277Z,0.98
2023-01-28T20:11:09.769Z,0.99
2023-01-28T20:13:40.391Z,0.98
2023-01-28T20:16:10.517Z,0.98
2023-01-28T20:18:38.417Z,0.95
2023-01-28T20:21:06.283Z,0.94
2023-01-28T20:23:34.115Z,0.92
2023-01-28T20:26:02.296Z,0.91
2023-01-28T20:28:30.181Z,0.88
2023-01-28T20:31:05.969Z,0.85
2023-01-28T20:33:34.048Z,0.84
2023-01-28T20:36:03.003Z,0.82
2023-01-28T20:38:30.864Z,0.78
2023-01-28T20:40:58.554Z,0.77
2023-01-28T20:43:27.865Z,0.76
2023-01-28T20:46:04.736Z,0.73
2023-01-28T20:48:33.361Z,0.71
2023-01-28T20:51:06.471Z,0.69
2023-01-28T20:53:34.193Z,0.64
2023-01-28T20:56:02.305Z,0.61
2023-01-28T20:58:30.377Z,0.63
2023-01-28T21:00:58.124Z,0.63
2023-01-28T21:03:27.531Z,0.61
2023-01-28T21:05:55.251Z,0.58
2023-01-28T21:08:23.021Z,0.57
2023-01-28T21:10:50.759Z,0.55
2023-01-28T21:13:18.761Z,0.52
2023-01-28T21:15:54.148Z,0.54
2023-01-28T21:18:22.440Z,0.51
2023-01-28T21:20:51.613Z,0.46
2023-01-28T21:23:19.347Z,0.46
2023-01-28T21:25:47.763Z,0.45
2023-01-28T21:28:15.488Z,0.43
2023-01-28T21:30:43.474Z,0.42
2023-01-28T21:33:11.293Z,0.43
2023-01-28T21:35:39.741Z,0.41
2023-01-28T21:38:11.446Z,0.39
2023-01-28T21:40:46.770Z,0.39
2023-01-28T21:43:20.065Z,0.36
2023-01-28T21:45:55.164Z,0.32
2023-01-28T21:48:28.208Z,0.31
2023-01-28T21:51:14.156Z,0.30
2023-01-28T21:53:44.641Z,0.25
2023-01-28T21:56:12.958Z,0.21
2023-01-28T21:58:58.813Z,0.19
2023-01-28T22:01:28.670Z,0.21
2023-01-28T22:03:58.196Z,0.21
2023-01-28T22:06:26.361Z,0.21
2023-01-28T22:08:55.675Z,0.19
2023-01-28T22:11:23.413Z,0.20
2023-01-28T22:13:51.136Z,0.19
2023-01-28T22:16:19.259Z,0.19
2023-01-28T22:18:48.976Z,0.17
2023-01-28T22:21:16.926Z,0.16
2023-01-28T22:23:44.636Z,0.11
2023-01-28T22:26:15.347Z,0.12
2023-01-28T22:28:48.503Z,0.10
2023-01-28T22:31:17.854Z,0.08
2023-01-28T22:33:47.245Z,0.08
2023-01-28T22:36:16.547Z,0.06
2023-01-28T22:38:46.265Z,0.07
2023-01-28T22:41:19.115Z,0.08
2023-01-28T22:43:47.828Z,0.08
2023-01-28T22:46:16.732Z,0.07
2023-01-28T22:48:44.517Z,0.07
2023-01-28T22:51:16.430Z,0.06
2023-01-28T22:53:44.448Z,0.04
2023-01-28T22:56:12.470Z,0.04
2023-01-28T22:58:41.806Z,0.03
2023-01-28T23:01:09.625Z,0.03
2023-01-28T23:03:37.729Z,0.03
2023-01-28T23:06:07.572Z,0.03
2023-01-28T23:08:35.306Z,-0.06
2023-01-28T23:11:15.318Z,-0.08
2023-01-28T23:14:03.349Z,-0.10
2023-01-28T23:16:49.629Z,-0.11
2023-01-28T23:19:35.418Z,-0.11
2023-01-28T23:22:21.116Z,-0.13
2023-01-28T23:24:48.934Z,-0.16
2023-01-28T23:27:16.789Z,-0.16
2023-01-28T23:29:46.456Z,-0.17
2023-01-28T23:32:14.236Z,-0.22
2023-01-28T23:34:44.507Z,-0.24
2023-01-28T23:37:13.930Z,-0.24
2023-01-28T23:39:42.617Z,-0.26
2023-01-28T23:42:12.397Z,-0.27
2023-01-28T23:44:40.144Z,-0.29
2023-01-28T23:47:10.075Z,-0.30
2023-01-28T23:49:38.377Z,-0.30
2023-01-28T23:52:07.257Z,-0.30
2023-01-28T23:54:35.437Z,-0.30
2023-01-28T23:57:03.868Z,-0.30
2023-01-28T23:59:31.577Z,-0.31
